PWSweather.com
Personal Weather Stations
Station Observations
NEWFAL01
Newton Falls, OH 44444

Newton Falls, OH 44444

Lat: 41.19902, Lon: -80.97668

Elevation: 920

Station Type: Vantage Pro 2

http://www.mvweathercenter.com

Latest ConditionsUpdated 9:35:01 AM EST Friday, Nov 24, 2017
Currently Today's Max Today's Min Today's Average
Temperature 37.1°F2.8°C 37.1°F2.8°C 26.9°F-2.8°C 29.2°F-1.6°C
Dew Point 26.8°F-2.9°C 27.0°F-2.8°C 21.3°F-5.9°C 22.6°F-5.2°C
Winds 8.1 mph N13.0 kmh N 8.1 mph N13.0 kmh N - 0.7 mph 1.1 kmh
Wind Gusts 11.5 mph18.5 kmh 13.8 mph22.2 kmh - -
Humidity 66% 81% 66% 76%
Pressure 29.98 in1015.2 mb 30.05 in1017.6 mb 29.98 in1015.2 mb -
Hour Temp Dew Point Humidity Winds Wind Gusts Pressure Precip Precip Rate Daily Precip Total
09:35 AM 37.1°F2.8°C 26.8°F-2.9°C 66% 8.1 mph N13.0 kmh N 11.5 mph18.5 kmh 29.98 in1015.2 mb - 0.00 in0.0 mm 0.00 in0.0 mm
09:30 AM 36.6°F2.6°C 27.0°F-2.8°C 68% 8.1 mph N13.0 kmh N 13.8 mph22.2 kmh 29.98 in1015.2 mb - 0.00 in0.0 mm 0.00 in0.0 mm
09:25 AM 35.9°F2.2°C 26.7°F-2.9°C 69% 3.5 mph N5.6 kmh N 4.6 mph7.4 kmh 29.98 in1015.2 mb - 0.00 in0.0 mm 0.00 in0.0 mm
09:20 AM 35.2°F1.8°C 26.1°F-3.3°C 69% 5.8 mph N9.3 kmh N 9.2 mph14.8 kmh 29.99 in1015.6 mb - 0.00 in0.0 mm 0.00 in0.0 mm
09:15 AM 34.6°F1.4°C 25.8°F-3.4°C 70% 5.8 mph N9.3 kmh N 8.1 mph13.0 kmh 29.99 in1015.6 mb - 0.00 in0.0 mm 0.00 in0.0 mm
09:10 AM 34.2°F1.2°C 25.8°F-3.4°C 71% 4.6 mph N7.4 kmh N 9.2 mph14.8 kmh 29.99 in1015.6 mb - 0.00 in0.0 mm 0.00 in0.0 mm
09:00 AM 33.3°F0.7°C 25.6°F-3.6°C 73% 5.8 mph N9.3 kmh N 8.1 mph13.0 kmh 29.99 in1015.6 mb - 0.00 in0.0 mm 0.00 in0.0 mm
08:55 AM 32.9°F0.5°C 25.5°F-3.6°C 74% 4.6 mph N7.4 kmh N 5.8 mph9.3 kmh 30.00 in1015.9 mb - 0.00 in0.0 mm 0.00 in0.0 mm
08:50 AM 32.4°F0.2°C 25.4°F-3.7°C 75% 4.6 mph N7.4 kmh N 4.6 mph7.4 kmh 30.00 in1015.9 mb - 0.00 in0.0 mm 0.00 in0.0 mm
08:45 AM 31.7°F-0.2°C 25.3°F-3.7°C 77% 1.2 mph N1.9 kmh N 5.8 mph9.3 kmh 30.00 in1015.9 mb - 0.00 in0.0 mm 0.00 in0.0 mm
08:40 AM 31.0°F-0.6°C 24.9°F-3.9°C 78% Calm Calm -- 30.00 in1015.9 mb - 0.00 in0.0 mm 0.00 in0.0 mm
08:35 AM 30.2°F-1.0°C 24.5°F-4.2°C 79% 3.5 mph N5.6 kmh N 4.6 mph7.4 kmh 30.00 in1015.9 mb - 0.00 in0.0 mm 0.00 in0.0 mm
08:30 AM 29.4°F-1.4°C 24.0°F-4.4°C 80% 3.5 mph N5.6 kmh N 8.1 mph13.0 kmh 30.01 in1016.3 mb - 0.00 in0.0 mm 0.00 in0.0 mm
08:25 AM 28.8°F-1.8°C 23.7°F-4.6°C 81% Calm Calm 3.5 mph5.6 kmh 30.01 in1016.3 mb - 0.00 in0.0 mm 0.00 in0.0 mm
08:20 AM 28.3°F-2.1°C 23.2°F-4.9°C 81% Calm Calm -- 30.01 in1016.3 mb - 0.00 in0.0 mm 0.00 in0.0 mm
08:15 AM 27.9°F-2.3°C 22.8°F-5.1°C 81% Calm Calm -- 30.01 in1016.3 mb - 0.00 in0.0 mm 0.00 in0.0 mm
08:10 AM 27.6°F-2.4°C 22.5°F-5.3°C 81% Calm Calm -- 30.01 in1016.3 mb - 0.00 in0.0 mm 0.00 in0.0 mm
08:00 AM 27.2°F-2.7°C 22.1°F-5.5°C 81% Calm Calm -- 30.01 in1016.3 mb - 0.00 in0.0 mm 0.00 in0.0 mm
07:55 AM 27.0°F-2.8°C 21.9°F-5.6°C 81% Calm Calm -- 30.01 in1016.3 mb - 0.00 in0.0 mm 0.00 in0.0 mm
07:50 AM 26.9°F-2.8°C 21.6°F-5.8°C 80% Calm Calm -- 30.01 in1016.3 mb - 0.00 in0.0 mm 0.00 in0.0 mm
07:45 AM 26.9°F-2.8°C 21.6°F-5.8°C 80% Calm Calm -- 30.01 in1016.3 mb - 0.00 in0.0 mm 0.00 in0.0 mm
07:40 AM 26.9°F-2.8°C 21.6°F-5.8°C 80% Calm Calm 1.2 mph1.9 kmh 30.01 in1016.3 mb - 0.00 in0.0 mm 0.00 in0.0 mm
07:35 AM 26.9°F-2.8°C 21.6°F-5.8°C 80% Calm Calm -- 30.01 in1016.3 mb - 0.00 in0.0 mm 0.00 in0.0 mm
07:30 AM 26.9°F-2.8°C 21.3°F-5.9°C 79% Calm Calm -- 30.01 in1016.3 mb - 0.00 in0.0 mm 0.00 in0.0 mm
07:25 AM 26.9°F-2.8°C 21.3°F-5.9°C 79% Calm Calm -- 30.01 in1016.3 mb - 0.00 in0.0 mm 0.00 in0.0 mm
07:20 AM 27.0°F-2.8°C 21.4°F-5.9°C 79% Calm Calm -- 30.01 in1016.3 mb - 0.00 in0.0 mm 0.00 in0.0 mm
07:15 AM 27.1°F-2.7°C 21.4°F-5.9°C 79% Calm Calm -- 30.01 in1016.3 mb - 0.00 in0.0 mm 0.00 in0.0 mm
07:10 AM 27.1°F-2.7°C 21.5°F-5.8°C 79% Calm Calm -- 30.01 in1016.3 mb - 0.00 in0.0 mm 0.00 in0.0 mm
07:00 AM 27.3°F-2.6°C 21.3°F-5.9°C 78% Calm Calm -- 30.01 in1016.3 mb - 0.00 in0.0 mm 0.00 in0.0 mm
06:55 AM 27.4°F-2.6°C 21.5°F-5.8°C 78% Calm Calm -- 30.01 in1016.3 mb - 0.00 in0.0 mm 0.00 in0.0 mm
06:50 AM 27.6°F-2.4°C 21.6°F-5.8°C 78% Calm Calm -- 30.01 in1016.3 mb - 0.00 in0.0 mm 0.00 in0.0 mm
06:45 AM 27.7°F-2.4°C 21.7°F-5.7°C 78% Calm Calm -- 30.01 in1016.3 mb - 0.00 in0.0 mm 0.00 in0.0 mm
06:40 AM 27.8°F-2.3°C 21.8°F-5.7°C 78% Calm Calm -- 30.01 in1016.3 mb - 0.00 in0.0 mm 0.00 in0.0 mm
06:35 AM 27.9°F-2.3°C 21.9°F-5.6°C 78% Calm Calm -- 30.01 in1016.3 mb - 0.00 in0.0 mm 0.00 in0.0 mm
06:30 AM 28.0°F-2.2°C 21.7°F-5.7°C 77% Calm Calm -- 30.01 in1016.3 mb - 0.00 in0.0 mm 0.00 in0.0 mm
06:25 AM 28.1°F-2.2°C 21.8°F-5.7°C 77% Calm Calm -- 30.01 in1016.3 mb - 0.00 in0.0 mm 0.00 in0.0 mm
06:20 AM 28.1°F-2.2°C 21.8°F-5.7°C 77% Calm Calm -- 30.02 in1016.6 mb - 0.00 in0.0 mm 0.00 in0.0 mm
06:15 AM 28.2°F-2.1°C 21.9°F-5.6°C 77% Calm Calm -- 30.02 in1016.6 mb - 0.00 in0.0 mm 0.00 in0.0 mm
06:10 AM 28.3°F-2.1°C 22.0°F-5.6°C 77% Calm Calm -- 30.02 in1016.6 mb - 0.00 in0.0 mm 0.00 in0.0 mm
06:00 AM 28.5°F-1.9°C 21.9°F-5.6°C 76% Calm Calm -- 30.01 in1016.3 mb - 0.00 in0.0 mm 0.00 in0.0 mm
05:55 AM 28.5°F-1.9°C 21.9°F-5.6°C 76% Calm Calm -- 30.01 in1016.3 mb - 0.00 in0.0 mm 0.00 in0.0 mm
05:50 AM 28.6°F-1.9°C 22.0°F-5.6°C 76% Calm Calm -- 30.01 in1016.3 mb - 0.00 in0.0 mm 0.00 in0.0 mm
05:45 AM 28.6°F-1.9°C 22.0°F-5.6°C 76% Calm Calm -- 30.01 in1016.3 mb - 0.00 in0.0 mm 0.00 in0.0 mm
05:40 AM 28.6°F-1.9°C 22.0°F-5.6°C 76% Calm Calm -- 30.01 in1016.3 mb - 0.00 in0.0 mm 0.00 in0.0 mm
05:35 AM 28.7°F-1.8°C 22.1°F-5.5°C 76% Calm Calm -- 30.01 in1016.3 mb - 0.00 in0.0 mm 0.00 in0.0 mm
05:30 AM 28.6°F-1.9°C 22.0°F-5.6°C 76% Calm Calm -- 30.01 in1016.3 mb - 0.00 in0.0 mm 0.00 in0.0 mm
05:25 AM 28.6°F-1.9°C 22.0°F-5.6°C 76% 1.2 mph N1.9 kmh N 3.5 mph5.6 kmh 30.01 in1016.3 mb - 0.00 in0.0 mm 0.00 in0.0 mm
05:20 AM 28.6°F-1.9°C 22.0°F-5.6°C 76% Calm Calm -- 30.01 in1016.3 mb - 0.00 in0.0 mm 0.00 in0.0 mm
05:15 AM 28.5°F-1.9°C 21.9°F-5.6°C 76% Calm Calm 1.2 mph1.9 kmh 30.01 in1016.3 mb - 0.00 in0.0 mm 0.00 in0.0 mm
05:10 AM 28.5°F-1.9°C 21.9°F-5.6°C 76% Calm Calm -- 30.01 in1016.3 mb - 0.00 in0.0 mm 0.00 in0.0 mm
05:00 AM 28.5°F-1.9°C 21.9°F-5.6°C 76% Calm Calm -- 30.01 in1016.3 mb - 0.00 in0.0 mm 0.00 in0.0 mm
04:55 AM 28.6°F-1.9°C 22.0°F-5.6°C 76% Calm Calm -- 30.01 in1016.3 mb - 0.00 in0.0 mm 0.00 in0.0 mm
04:50 AM 28.6°F-1.9°C 22.0°F-5.6°C 76% Calm Calm -- 30.01 in1016.3 mb - 0.00 in0.0 mm 0.00 in0.0 mm
04:45 AM 28.6°F-1.9°C 21.7°F-5.7°C 75% 1.2 mph N1.9 kmh N 3.5 mph5.6 kmh 30.01 in1016.3 mb - 0.00 in0.0 mm 0.00 in0.0 mm
04:40 AM 28.7°F-1.8°C 21.8°F-5.7°C 75% 1.2 mph N1.9 kmh N -- 30.01 in1016.3 mb - 0.00 in0.0 mm 0.00 in0.0 mm
04:35 AM 28.8°F-1.8°C 21.9°F-5.6°C 75% Calm Calm -- 30.01 in1016.3 mb - 0.00 in0.0 mm 0.00 in0.0 mm
04:30 AM 28.8°F-1.8°C 21.9°F-5.6°C 75% Calm Calm -- 30.01 in1016.3 mb - 0.00 in0.0 mm 0.00 in0.0 mm
04:25 AM 28.9°F-1.7°C 22.0°F-5.6°C 75% Calm Calm -- 30.01 in1016.3 mb - 0.00 in0.0 mm 0.00 in0.0 mm
04:20 AM 28.9°F-1.7°C 22.0°F-5.6°C 75% Calm Calm 1.2 mph1.9 kmh 30.01 in1016.3 mb - 0.00 in0.0 mm 0.00 in0.0 mm
04:15 AM 29.0°F-1.7°C 22.1°F-5.5°C 75% Calm Calm -- 30.01 in1016.3 mb - 0.00 in0.0 mm 0.00 in0.0 mm
04:10 AM 29.0°F-1.7°C 22.1°F-5.5°C 75% Calm Calm 3.5 mph5.6 kmh 30.01 in1016.3 mb - 0.00 in0.0 mm 0.00 in0.0 mm
04:00 AM 29.1°F-1.6°C 22.2°F-5.4°C 75% Calm Calm -- 30.00 in1015.9 mb - 0.00 in0.0 mm 0.00 in0.0 mm
03:55 AM 29.2°F-1.6°C 22.3°F-5.4°C 75% 1.2 mph N1.9 kmh N 3.5 mph5.6 kmh 30.00 in1015.9 mb - 0.00 in0.0 mm 0.00 in0.0 mm
03:50 AM 29.2°F-1.6°C 22.0°F-5.6°C 74% Calm Calm -- 30.01 in1016.3 mb - 0.00 in0.0 mm 0.00 in0.0 mm
03:45 AM 29.3°F-1.5°C 22.0°F-5.6°C 74% 1.2 mph N1.9 kmh N -- 30.01 in1016.3 mb - 0.00 in0.0 mm 0.00 in0.0 mm
03:40 AM 29.4°F-1.4°C 22.1°F-5.5°C 74% 1.2 mph N1.9 kmh N 3.5 mph5.6 kmh 30.01 in1016.3 mb - 0.00 in0.0 mm 0.00 in0.0 mm
03:35 AM 29.4°F-1.4°C 22.5°F-5.3°C 75% Calm Calm 1.2 mph1.9 kmh 30.01 in1016.3 mb - 0.00 in0.0 mm 0.00 in0.0 mm
03:30 AM 29.3°F-1.5°C 22.4°F-5.3°C 75% Calm Calm -- 30.01 in1016.3 mb - 0.00 in0.0 mm 0.00 in0.0 mm
03:25 AM 29.3°F-1.5°C 22.4°F-5.3°C 75% 1.2 mph N1.9 kmh N 4.6 mph7.4 kmh 30.00 in1015.9 mb - 0.00 in0.0 mm 0.00 in0.0 mm
03:20 AM 29.3°F-1.5°C 22.4°F-5.3°C 75% 1.2 mph N1.9 kmh N 4.6 mph7.4 kmh 30.00 in1015.9 mb - 0.00 in0.0 mm 0.00 in0.0 mm
03:15 AM 29.3°F-1.5°C 22.4°F-5.3°C 75% Calm Calm 3.5 mph5.6 kmh 30.01 in1016.3 mb - 0.00 in0.0 mm 0.00 in0.0 mm
03:10 AM 29.2°F-1.6°C 22.3°F-5.4°C 75% 1.2 mph N1.9 kmh N -- 30.01 in1016.3 mb - 0.00 in0.0 mm 0.00 in0.0 mm
03:00 AM 29.1°F-1.6°C 22.5°F-5.3°C 76% 1.2 mph N1.9 kmh N 3.5 mph5.6 kmh 30.01 in1016.3 mb - 0.00 in0.0 mm 0.00 in0.0 mm
02:55 AM 29.1°F-1.6°C 22.5°F-5.3°C 76% 3.5 mph N5.6 kmh N 5.8 mph9.3 kmh 30.01 in1016.3 mb - 0.00 in0.0 mm 0.00 in0.0 mm
02:50 AM 29.1°F-1.6°C 22.5°F-5.3°C 76% Calm Calm -- 30.01 in1016.3 mb - 0.00 in0.0 mm 0.00 in0.0 mm
02:45 AM 29.0°F-1.7°C 22.4°F-5.3°C 76% Calm Calm -- 30.01 in1016.3 mb - 0.00 in0.0 mm 0.00 in0.0 mm
02:40 AM 29.0°F-1.7°C 22.4°F-5.3°C 76% Calm Calm 1.2 mph1.9 kmh 30.01 in1016.3 mb - 0.00 in0.0 mm 0.00 in0.0 mm
02:35 AM 29.0°F-1.7°C 22.4°F-5.3°C 76% 1.2 mph N1.9 kmh N 3.5 mph5.6 kmh 30.01 in1016.3 mb - 0.00 in0.0 mm 0.00 in0.0 mm
02:30 AM 29.1°F-1.6°C 22.5°F-5.3°C 76% Calm Calm 3.5 mph5.6 kmh 30.01 in1016.3 mb - 0.00 in0.0 mm 0.00 in0.0 mm
02:25 AM 29.1°F-1.6°C 22.5°F-5.3°C 76% Calm Calm -- 30.01 in1016.3 mb - 0.00 in0.0 mm 0.00 in0.0 mm
02:20 AM 29.1°F-1.6°C 22.5°F-5.3°C 76% Calm Calm -- 30.01 in1016.3 mb - 0.00 in0.0 mm 0.00 in0.0 mm
02:15 AM 29.0°F-1.7°C 22.4°F-5.3°C 76% Calm Calm 1.2 mph1.9 kmh 30.01 in1016.3 mb - 0.00 in0.0 mm 0.00 in0.0 mm
02:10 AM 29.1°F-1.6°C 22.5°F-5.3°C 76% Calm Calm -- 30.01 in1016.3 mb - 0.00 in0.0 mm 0.00 in0.0 mm
02:00 AM 29.1°F-1.6°C 22.5°F-5.3°C 76% Calm Calm -- 30.01 in1016.3 mb - 0.00 in0.0 mm 0.00 in0.0 mm
01:55 AM 29.0°F-1.7°C 22.4°F-5.3°C 76% Calm Calm -- 30.01 in1016.3 mb - 0.00 in0.0 mm 0.00 in0.0 mm
01:50 AM 29.1°F-1.6°C 22.5°F-5.3°C 76% Calm Calm -- 30.02 in1016.6 mb - 0.00 in0.0 mm 0.00 in0.0 mm
01:45 AM 29.0°F-1.7°C 22.4°F-5.3°C 76% Calm Calm -- 30.02 in1016.6 mb - 0.00 in0.0 mm 0.00 in0.0 mm
01:40 AM 29.1°F-1.6°C 22.4°F-5.3°C 76% Calm Calm -- 30.02 in1016.6 mb - 0.00 in0.0 mm 0.00 in0.0 mm
01:35 AM 29.0°F-1.7°C 22.4°F-5.3°C 76% 1.2 mph N1.9 kmh N 3.5 mph5.6 kmh 30.02 in1016.6 mb - 0.00 in0.0 mm 0.00 in0.0 mm
01:30 AM 29.1°F-1.6°C 22.5°F-5.3°C 76% Calm Calm -- 30.02 in1016.6 mb - 0.00 in0.0 mm 0.00 in0.0 mm
01:25 AM 29.1°F-1.6°C 22.5°F-5.3°C 76% Calm Calm -- 30.02 in1016.6 mb - 0.00 in0.0 mm 0.00 in0.0 mm
01:20 AM 29.1°F-1.6°C 22.5°F-5.3°C 76% Calm Calm -- 30.02 in1016.6 mb - 0.00 in0.0 mm 0.00 in0.0 mm
01:15 AM 29.1°F-1.6°C 22.5°F-5.3°C 76% Calm Calm -- 30.02 in1016.6 mb - 0.00 in0.0 mm 0.00 in0.0 mm
01:10 AM 29.1°F-1.6°C 22.5°F-5.3°C 76% Calm Calm -- 30.02 in1016.6 mb - 0.00 in0.0 mm 0.00 in0.0 mm
01:00 AM 29.1°F-1.6°C 22.5°F-5.3°C 76% 1.2 mph N1.9 kmh N 3.5 mph5.6 kmh 30.03 in1016.9 mb - 0.00 in0.0 mm 0.00 in0.0 mm
12:55 AM 29.1°F-1.6°C 22.5°F-5.3°C 76% Calm Calm -- 30.03 in1016.9 mb - 0.00 in0.0 mm 0.00 in0.0 mm
12:50 AM 29.0°F-1.7°C 22.4°F-5.3°C 76% Calm Calm -- 30.03 in1016.9 mb - 0.00 in0.0 mm 0.00 in0.0 mm
12:45 AM 29.0°F-1.7°C 22.4°F-5.3°C 76% Calm Calm -- 30.04 in1017.3 mb - 0.00 in0.0 mm 0.00 in0.0 mm
12:40 AM 29.0°F-1.7°C 22.4°F-5.3°C 76% Calm Calm -- 30.04 in1017.3 mb - 0.00 in0.0 mm 0.00 in0.0 mm
12:35 AM 29.0°F-1.7°C 22.4°F-5.3°C 76% Calm Calm -- 30.04 in1017.3 mb - 0.00 in0.0 mm 0.00 in0.0 mm
12:30 AM 29.1°F-1.6°C 22.5°F-5.3°C 76% Calm Calm -- 30.04 in1017.3 mb - 0.00 in0.0 mm 0.00 in0.0 mm
12:25 AM 29.2°F-1.6°C 22.6°F-5.2°C 76% Calm Calm -- 30.05 in1017.6 mb - 0.00 in0.0 mm 0.00 in0.0 mm
12:20 AM 29.2°F-1.6°C 22.6°F-5.2°C 76% Calm Calm -- 30.05 in1017.6 mb - 0.00 in0.0 mm 0.00 in0.0 mm
12:15 AM 29.3°F-1.5°C 22.7°F-5.2°C 76% Calm Calm -- 30.05 in1017.6 mb - 0.00 in0.0 mm 0.00 in0.0 mm
12:10 AM 29.3°F-1.5°C 22.4°F-5.3°C 75% Calm Calm -- 30.05 in1017.6 mb - 0.00 in0.0 mm 0.00 in0.0 mm
12:00 AM 29.5°F-1.4°C 22.5°F-5.3°C 75% Calm Calm -- 30.05 in1017.6 mb - 0.00 in0.0 mm 0.00 in0.0 mm